Time;durP1;ratioP1;P1;durP2;ratioP2;P2;SDS_P1;SDS_P2;PMS_P1;PMS_P2;Temp;Humidity;BMP_temperature;BMP_pressure;BME280_temperature;BME280_humidity;BME280_pressure;Samples;Min_cycle;Max_cycle;Signal;HPM_P1;HPM_P2
2022/11/03 00:01:07;;;;;;;;;;;;;;;20.50;58.37;97441.71;600057;236;67087;-75
2022/11/03 00:03:34;;;;;;;;;;;;;;;20.49;58.53;97440.11;600058;236;64771;-74
2022/11/03 00:06:05;;;;;;;;;;;;;;;20.50;58.44;97444.38;600115;236;62747;-74
2022/11/03 00:08:33;;;;;;;;;;;;;;;20.49;58.95;97448.13;600029;236;67207;-75
2022/11/03 00:11:05;;;;;;;;;;;;;;;20.49;58.47;97452.64;600098;236;66661;-74
2022/11/03 00:13:32;;;;;;;;;;;;;;;20.50;58.48;97449.72;600064;236;62775;-73
2022/11/03 00:16:00;;;;;;;;;;;;;;;20.49;59.03;97442.78;600054;236;64840;-72
2022/11/03 00:18:27;;;;;;;;;;;;;;;20.49;58.43;97448.13;600039;236;65089;-73
2022/11/03 00:20:56;;;;;;;;;;;;;;;20.48;58.79;97441.16;600111;236;62759;-72
2022/11/03 00:23:28;;;;;;;;;;;;;;;20.49;58.39;97448.13;599835;236;65736;-73
2022/11/03 00:25:56;;;;;;;;;;;;;;;20.49;58.49;97448.13;600030;236;66789;-73
2022/11/03 00:28:23;;;;;;;;;;;;;;;20.49;58.66;97447.30;600072;236;62871;-72
2022/11/03 00:30:51;;;;;;;;;;;;;;;20.49;58.65;97437.45;600052;236;67113;-74
2022/11/03 00:33:18;;;;;;;;;;;;;;;20.49;58.98;97439.28;600106;236;66906;-74
2022/11/03 00:35:46;;;;;;;;;;;;;;;20.48;58.71;97441.16;600030;236;64917;-74
2022/11/03 00:38:13;;;;;;;;;;;;;;;20.48;58.70;97435.81;600064;236;66809;-74
2022/11/03 00:40:40;;;;;;;;;;;;;;;20.49;58.93;97441.95;600046;236;66991;-73
2022/11/03 00:43:08;;;;;;;;;;;;;;;20.49;58.75;97434.78;600042;236;65059;-73
2022/11/03 00:45:35;;;;;;;;;;;;;;;20.49;58.90;97449.97;600071;236;67311;-73
2022/11/03 00:50:49;;;;;;;;;;;;;;;20.48;58.54;97446.50;600015;236;65238;-73
2022/11/03 00:53:16;;;;;;;;;;;;;;;20.48;59.17;97453.71;600048;236;67077;-72
2022/11/03 00:55:45;;;;;;;;;;;;;;;20.47;59.15;97455.58;600030;236;66884;-72
2022/11/03 00:58:12;;;;;;;;;;;;;;;20.49;59.44;97450.80;599957;235;62645;-73
2022/11/03 01:00:40;;;;;;;;;;;;;;;20.48;59.66;97451.03;600096;236;67069;-73
2022/11/03 01:03:07;;;;;;;;;;;;;;;20.48;58.97;97451.03;600035;236;67764;-74
2022/11/03 01:08:22;;;;;;;;;;;;;;;20.47;58.69;97441.44;600017;236;67157;-73
2022/11/03 01:13:35;;;;;;;;;;;;;;;20.47;59.34;97434.22;600041;236;62827;-75
2022/11/03 01:16:02;;;;;;;;;;;;;;;20.46;59.44;97443.30;600109;236;64859;-75
2022/11/03 01:18:30;;;;;;;;;;;;;;;20.46;59.69;97439.80;600046;236;64735;-75
2022/11/03 01:20:57;;;;;;;;;;;;;;;20.45;60.82;97441.67;600041;236;63672;-75
2022/11/03 01:23:24;;;;;;;;;;;;;;;20.45;60.20;97441.67;600049;236;67055;-75
2022/11/03 01:25:52;;;;;;;;;;;;;;;20.45;59.53;97436.34;600049;236;66628;-73
2022/11/03 01:28:19;;;;;;;;;;;;;;;20.46;59.34;97442.47;600105;236;64936;-73
2022/11/03 01:30:47;;;;;;;;;;;;;;;20.44;59.80;97429.40;600033;236;67100;-73
2022/11/03 01:33:14;;;;;;;;;;;;;;;20.45;59.19;97436.34;600028;236;65884;-73
2022/11/03 01:35:42;;;;;;;;;;;;;;;20.44;59.60;97442.75;600055;236;62797;-73
2022/11/03 01:38:09;;;;;;;;;;;;;;;20.45;59.10;97440.87;600015;236;64985;-73
2022/11/03 01:40:37;;;;;;;;;;;;;;;20.45;59.47;97441.67;600102;236;64836;-73
2022/11/03 01:43:21;;;;;;;;;;;;;;;20.45;59.51;97441.67;600058;236;62911;-73
2022/11/03 01:45:50;;;;;;;;;;;;;;;20.45;59.28;97443.55;600030;236;64944;-73
2022/11/03 01:48:19;;;;;;;;;;;;;;;20.45;60.04;97443.55;600085;236;66836;-73
2022/11/03 01:50:47;;;;;;;;;;;;;;;20.43;60.23;97446.45;600032;236;64961;-75
2022/11/03 01:53:16;;;;;;;;;;;;;;;20.43;61.22;97449.13;600037;236;66632;-73
2022/11/03 01:55:44;;;;;;;;;;;;;;;20.44;59.97;97447.28;600136;236;64573;-73
2022/11/03 01:58:13;;;;;;;;;;;;;;;20.43;60.62;97449.13;600042;236;62997;-73
2022/11/03 02:00:45;;;;;;;;;;;;;;;20.43;59.53;97448.33;600092;236;64835;-73
2022/11/03 02:03:14;;;;;;;;;;;;;;;20.43;59.75;97443.79;600057;236;66950;-73
2022/11/03 02:05:43;;;;;;;;;;;;;;;20.43;60.26;97446.45;600093;236;64925;-73
2022/11/03 02:08:14;;;;;;;;;;;;;;;20.43;60.12;97451.00;600106;236;66772;-73
2022/11/03 02:10:42;;;;;;;;;;;;;;;20.41;60.52;97451.27;600009;236;66694;-74
2022/11/03 02:13:14;;;;;;;;;;;;;;;20.42;60.63;97455.54;600057;236;62744;-74
2022/11/03 02:15:42;;;;;;;;;;;;;;;20.42;60.61;97462.75;599945;236;67395;-75
2022/11/03 02:18:11;;;;;;;;;;;;;;;20.42;59.67;97465.42;600110;236;67084;-74
2022/11/03 02:20:40;;;;;;;;;;;;;;;20.42;59.68;97468.89;600089;236;65437;-75
2022/11/03 02:23:18;;;;;;;;;;;;;;;20.42;60.28;97463.55;600112;236;67091;-74
2022/11/03 02:25:53;;;;;;;;;;;;;;;20.41;60.21;97467.29;600050;236;66808;-75
2022/11/03 02:28:22;;;;;;;;;;;;;;;20.42;61.30;97468.09;599811;236;62785;-75
2022/11/03 02:30:51;;;;;;;;;;;;;;;20.41;61.89;97456.61;600062;236;64971;-75
2022/11/03 02:33:26;;;;;;;;;;;;;;;20.40;61.83;97461.13;600078;236;66693;-75
2022/11/03 02:35:55;;;;;;;;;;;;;;;20.39;61.64;97458.72;599950;236;62843;-75
2022/11/03 02:38:24;;;;;;;;;;;;;;;20.38;61.95;97465.94;600065;236;64753;-74
2022/11/03 02:40:55;;;;;;;;;;;;;;;20.39;62.06;97453.39;600072;236;65400;-75
2022/11/03 02:43:24;;;;;;;;;;;;;;;20.39;62.15;97456.86;600062;236;63059;-75
2022/11/03 02:45:52;;;;;;;;;;;;;;;20.38;61.70;97452.59;600078;236;67105;-75
2022/11/03 02:48:19;;;;;;;;;;;;;;;20.38;62.64;97451.79;600056;236;67213;-75
2022/11/03 02:50:48;;;;;;;;;;;;;;;20.38;61.17;97451.79;600078;236;64900;-74
2022/11/03 02:53:16;;;;;;;;;;;;;;;20.37;61.82;97453.63;600041;236;64930;-75
2022/11/03 02:55:47;;;;;;;;;;;;;;;20.38;62.92;97452.59;600080;236;64778;-75
2022/11/03 02:58:26;;;;;;;;;;;;;;;20.37;61.79;97456.30;599911;236;62864;-75
2022/11/03 03:01:01;;;;;;;;;;;;;;;20.38;61.29;97449.12;600100;236;64898;-75
2022/11/03 03:03:36;;;;;;;;;;;;;;;20.38;62.04;97454.45;600053;236;64834;-74
2022/11/03 03:06:05;;;;;;;;;;;;;;;20.37;63.11;97458.97;600128;236;65663;-75
2022/11/03 03:08:34;;;;;;;;;;;;;;;20.37;61.96;97458.17;599798;236;66967;-75
2022/11/03 03:11:02;;;;;;;;;;;;;;;20.37;62.80;97453.63;600071;236;66858;-75
2022/11/03 03:13:30;;;;;;;;;;;;;;;20.37;62.91;97458.17;600021;236;63034;-74
2022/11/03 03:16:05;;;;;;;;;;;;;;;20.37;61.96;97460.84;600060;236;65048;-74
2022/11/03 03:18:47;;;;;;;;;;;;;;;20.37;62.01;97463.51;600072;236;66716;-74
2022/11/03 03:21:16;;;;;;;;;;;;;;;20.36;62.33;97461.91;600103;236;64860;-74
2022/11/03 03:23:55;;;;;;;;;;;;;;;20.36;62.86;97464.58;600087;236;67162;-74
2022/11/03 03:26:29;;;;;;;;;;;;;;;20.35;63.85;97479.80;599715;236;66881;-74
2022/11/03 03:28:58;;;;;;;;;;;;;;;20.34;62.66;97464.82;600014;236;64845;-74
2022/11/03 03:31:27;;;;;;;;;;;;;;;20.34;61.08;97467.48;600004;236;67126;-74
2022/11/03 03:33:56;;;;;;;;;;;;;;;20.35;61.67;97468.29;600064;236;66778;-74
2022/11/03 03:36:25;;;;;;;;;;;;;;;20.34;61.94;97467.48;600107;236;62802;-74
2022/11/03 03:38:54;;;;;;;;;;;;;;;20.34;61.84;97470.16;600039;236;67039;-74
2022/11/03 03:41:23;;;;;;;;;;;;;;;20.36;63.29;97480.59;600056;236;66863;-74
2022/11/03 03:43:52;;;;;;;;;;;;;;;20.34;63.28;97480.83;600068;236;63652;-74
2022/11/03 03:46:21;;;;;;;;;;;;;;;20.34;63.89;97482.70;600078;236;67146;-74
2022/11/03 03:48:49;;;;;;;;;;;;;;;20.34;62.72;97488.84;600133;236;66857;-73
2022/11/03 03:51:18;;;;;;;;;;;;;;;20.33;63.55;97467.77;600036;234;64943;-72
2022/11/03 03:53:47;;;;;;;;;;;;;;;20.33;64.10;97471.23;600018;236;65086;-72
2022/11/03 03:56:15;;;;;;;;;;;;;;;20.34;63.72;97477.37;600007;236;64545;-72
2022/11/03 03:58:42;;;;;;;;;;;;;;;20.33;64.25;97481.91;600047;236;63161;-72
2022/11/03 04:01:11;;;;;;;;;;;;;;;20.32;64.34;97485.62;600082;236;64907;-72
2022/11/03 04:03:39;;;;;;;;;;;;;;;20.32;63.88;97476.81;600062;236;65414;-72
2022/11/03 04:06:07;;;;;;;;;;;;;;;20.32;64.24;97484.81;600018;236;62769;-72
2022/11/03 04:08:35;;;;;;;;;;;;;;;20.32;63.83;97490.16;600073;236;67135;-72
2022/11/03 04:22:23;;;;;;;;;;;;;;;20.31;64.12;97478.68;600121;236;65154;-72
2022/11/03 04:24:37;;;;;;;;;;;;;;;20.31;65.46;97486.69;598254;236;66775;-72
2022/11/03 04:27:11;;;;;;;;;;;;;;;20.30;66.56;97481.62;600035;236;66817;-72
2022/11/03 04:29:39;;;;;;;;;;;;;;;20.30;65.29;97481.62;599736;236;65223;-72
2022/11/03 04:32:16;;;;;;;;;;;;;;;20.29;63.99;97474.66;600039;236;67428;-72
2022/11/03 04:34:47;;;;;;;;;;;;;;;20.30;64.99;97479.75;600070;236;64830;-72
2022/11/03 04:37:15;;;;;;;;;;;;;;;20.28;64.07;97476.52;600085;236;62682;-72
2022/11/03 04:39:43;;;;;;;;;;;;;;;20.28;64.17;97481.86;600033;236;64930;-72
2022/11/03 04:42:15;;;;;;;;;;;;;;;20.29;64.27;97474.66;600071;236;64776;-74
2022/11/03 04:44:42;;;;;;;;;;;;;;;20.30;64.56;97486.95;600058;236;65015;-74
2022/11/03 04:47:11;;;;;;;;;;;;;;;20.30;65.39;97486.95;600049;236;67055;-74
2022/11/03 04:49:39;;;;;;;;;;;;;;;20.29;65.59;97485.33;600061;236;65702;-74
2022/11/03 04:52:12;;;;;;;;;;;;;;;20.29;64.39;97488.00;600409;236;63830;-74
2022/11/03 04:54:39;;;;;;;;;;;;;;;20.28;65.11;97489.07;600282;236;64846;-74
2022/11/03 04:57:14;;;;;;;;;;;;;;;20.28;65.24;97489.07;600449;236;64820;-74
2022/11/03 04:59:43;;;;;;;;;;;;;;;20.27;65.29;97490.94;600464;236;65118;-74
2022/11/03 05:02:12;;;;;;;;;;;;;;;20.27;65.18;97496.28;600423;236;65116;-74
2022/11/03 05:04:41;;;;;;;;;;;;;;;20.26;64.65;97486.64;600131;236;66948;-75
2022/11/03 05:07:22;;;;;;;;;;;;;;;20.27;65.38;97490.11;600430;236;65096;-75
2022/11/03 05:09:50;;;;;;;;;;;;;;;20.26;63.93;97489.31;599997;236;67600;-75
2022/11/03 05:12:19;;;;;;;;;;;;;;;20.27;64.32;97495.45;600514;236;64774;-76
2022/11/03 05:14:46;;;;;;;;;;;;;;;20.27;64.47;97495.45;600390;236;64882;-76
2022/11/03 05:17:24;;;;;;;;;;;;;;;20.27;64.92;97498.95;600405;236;67211;-74
2022/11/03 05:19:53;;;;;;;;;;;;;;;20.27;65.41;97498.95;600464;236;67384;-75
2022/11/03 05:22:22;;;;;;;;;;;;;;;20.28;65.14;97499.75;600313;235;64948;-75
2022/11/03 05:24:54;;;;;;;;;;;;;;;20.27;64.89;97498.12;600424;236;64819;-75
2022/11/03 05:27:22;;;;;;;;;;;;;;;20.26;64.96;97505.33;600369;236;66895;-76
2022/11/03 05:29:50;;;;;;;;;;;;;;;20.25;66.20;97505.59;600431;236;64757;-77
2022/11/03 05:32:19;;;;;;;;;;;;;;;20.26;65.99;97510.66;600464;236;64714;-76
2022/11/03 05:34:56;;;;;;;;;;;;;;;20.25;63.81;97511.73;600336;236;66905;-77
2022/11/03 05:37:33;;;;;;;;;;;;;;;20.26;64.75;97518.67;600166;236;65251;-75
2022/11/03 05:40:19;;;;;;;;;;;;;;;20.25;66.36;97522.41;600432;236;64616;-75
2022/11/03 05:42:46;;;;;;;;;;;;;;;20.25;66.75;97521.61;600476;236;67784;-75
2022/11/03 05:45:24;;;;;;;;;;;;;;;20.24;65.73;97528.78;600406;236;64950;-75
2022/11/03 05:47:53;;;;;;;;;;;;;;;20.24;65.30;97530.66;600462;236;65273;-76
2022/11/03 05:50:24;;;;;;;;;;;;;;;20.25;66.78;97540.30;600285;236;66806;-76
2022/11/03 05:52:55;;;;;;;;;;;;;;;20.23;66.01;97535.19;600196;236;44078;-75
2022/11/03 05:55:25;;;;;;;;;;;;;;;20.25;66.46;97548.30;600451;236;67116;-75
2022/11/03 05:57:57;;;;;;;;;;;;;;;20.24;66.38;97549.34;600185;236;67071;-74
2022/11/03 06:00:35;;;;;;;;;;;;;;;20.24;64.74;97547.47;600495;236;64980;-75
2022/11/03 06:03:03;;;;;;;;;;;;;;;20.24;66.03;97542.13;600309;236;66866;-75
2022/11/03 06:05:32;;;;;;;;;;;;;;;20.24;65.20;97541.33;600533;236;66754;-73
2022/11/03 06:08:00;;;;;;;;;;;;;;;20.23;65.57;97556.55;600466;236;62917;-73
2022/11/03 06:10:30;;;;;;;;;;;;;;;20.25;65.27;97556.30;600434;236;66942;-73
2022/11/03 06:13:02;;;;;;;;;;;;;;;20.24;64.98;97552.00;600495;236;64370;-72
2022/11/03 06:15:33;;;;;;;;;;;;;;;20.22;63.63;97552.27;600451;236;62771;-73
2022/11/03 06:18:02;;;;;;;;;;;;;;;20.23;64.10;97561.08;600553;236;64386;-72
2022/11/03 06:20:30;;;;;;;;;;;;;;;20.22;66.05;97560.28;600114;236;66713;-73
2022/11/03 06:22:57;;;;;;;;;;;;;;;20.23;64.98;97553.87;600438;236;65318;-72
2022/11/03 06:25:32;;;;;;;;;;;;;;;20.24;65.94;97552.80;600484;236;66750;-73
2022/11/03 06:28:01;;;;;;;;;;;;;;;20.23;65.47;97556.55;600474;236;66850;-73
2022/11/03 06:30:30;;;;;;;;;;;;;;;20.24;65.10;97552.00;600422;236;65120;-73
2022/11/03 06:33:04;;;;;;;;;;;;;;;20.25;64.34;97566.98;600347;236;67074;-73
2022/11/03 06:35:32;;;;;;;;;;;;;;;20.26;64.60;97565.91;600423;236;67464;-73
2022/11/03 06:37:59;;;;;;;;;;;;;;;20.26;63.69;97560.57;600433;236;64797;-72
2022/11/03 06:40:28;;;;;;;;;;;;;;;20.26;61.93;97568.58;600307;236;67041;-72
2022/11/03 06:42:57;;;;;;;;;;;;;;;20.26;60.67;97566.71;600322;236;67218;-72
2022/11/03 06:45:25;;;;;;;;;;;;;;;20.29;60.78;97566.20;600466;236;65021;-72
2022/11/03 06:47:53;;;;;;;;;;;;;;;20.30;59.78;97572.38;600331;236;64873;-72
2022/11/03 06:50:31;;;;;;;;;;;;;;;20.30;59.37;97567.83;600324;236;67123;-69
2022/11/03 06:53:00;;;;;;;;;;;;;;;20.32;59.45;97570.23;600097;236;62839;-81
2022/11/03 06:55:40;;;;;;;;;;;;;;;20.33;60.22;97555.84;600026;236;65419;-79
2022/11/03 06:58:09;;;;;;;;;;;;;;;20.33;60.03;97548.64;600122;236;67154;-73
2022/11/03 07:00:38;;;;;;;;;;;;;;;20.33;61.88;97550.51;599874;236;62755;-78
2022/11/03 07:03:07;;;;;;;;;;;;;;;20.33;61.97;97553.17;600101;236;65064;-78
2022/11/03 07:05:35;;;;;;;;;;;;;;;20.32;61.68;97548.88;600144;236;64694;-78
2022/11/03 07:08:04;;;;;;;;;;;;;;;20.33;60.59;97563.85;600109;236;65047;-79
2022/11/03 07:10:33;;;;;;;;;;;;;;;20.33;59.84;97548.64;600134;236;67067;-80
2022/11/03 07:13:02;;;;;;;;;;;;;;;20.34;60.12;97547.56;600110;236;64774;-78
2022/11/03 07:15:33;;;;;;;;;;;;;;;20.34;60.47;97549.44;599940;236;63669;-77
2022/11/03 07:18:02;;;;;;;;;;;;;;;20.35;60.09;97543.03;599321;236;68927;-70
2022/11/03 07:20:30;;;;;;;;;;;;;;;20.34;60.72;97554.77;600224;236;66470;-70
2022/11/03 07:22:59;;;;;;;;;;;;;;;20.36;60.84;97545.45;600243;236;62728;-72
2022/11/03 07:25:26;;;;;;;;;;;;;;;20.36;59.75;97553.47;600114;236;66524;-72
2022/11/03 07:27:56;;;;;;;;;;;;;;;20.37;60.48;97540.92;600119;236;66442;-73
2022/11/03 07:30:25;;;;;;;;;;;;;;;20.37;58.89;97547.06;599349;236;64888;-72
2022/11/03 07:32:53;;;;;;;;;;;;;;;20.38;58.64;97551.36;599048;236;69632;-72
2022/11/03 07:35:28;;;;;;;;;;;;;;;20.39;58.80;97546.81;599767;236;66532;-71
2022/11/03 07:37:56;;;;;;;;;;;;;;;20.40;59.53;97543.08;600274;236;65074;-72
2022/11/03 07:40:26;;;;;;;;;;;;;;;20.40;59.42;97538.53;600235;236;68853;-67
2022/11/03 07:42:58;;;;;;;;;;;;;;;20.40;60.04;97541.20;600243;236;66368;-71
2022/11/03 07:45:39;;;;;;;;;;;;;;;20.43;58.86;97534.55;600236;236;62736;-68
2022/11/03 07:48:18;;;;;;;;;;;;;;;20.47;58.38;97540.21;600286;236;66467;-71
2022/11/03 07:50:46;;;;;;;;;;;;;;;20.49;59.17;97538.07;602235;234;68945;-74
2022/11/03 07:53:15;;;;;;;;;;;;;;;20.51;59.79;97526.08;604581;234;62796;-73
2022/11/03 07:55:44;;;;;;;;;;;;;;;20.51;59.32;97531.42;604539;234;68613;-74
2022/11/03 07:58:13;;;;;;;;;;;;;;;20.54;59.52;97533.64;604660;234;66480;-73
2022/11/03 08:00:40;;;;;;;;;;;;;;;20.55;59.47;97527.23;604425;234;64725;-73
2022/11/03 08:03:09;;;;;;;;;;;;;;;20.57;59.18;97527.78;604681;234;68683;-76
2022/11/03 08:05:36;;;;;;;;;;;;;;;20.58;59.60;97532.05;604329;234;68563;-74
2022/11/03 08:08:04;;;;;;;;;;;;;;;20.59;60.98;97522.97;604648;234;65256;-77
2022/11/03 08:10:31;;;;;;;;;;;;;;;20.60;60.26;97524.59;604664;234;68348;-74
2022/11/03 08:12:59;;;;;;;;;;;;;;;20.62;59.71;97518.98;604667;234;68571;-77
2022/11/03 08:15:27;;;;;;;;;;;;;;;20.63;60.77;97520.61;604562;234;64917;-74
2022/11/03 08:17:55;;;;;;;;;;;;;;;20.64;60.82;97521.41;604609;234;68792;-74
2022/11/03 08:20:22;;;;;;;;;;;;;;;20.65;61.29;97521.14;604613;234;68515;-73
2022/11/03 08:22:49;;;;;;;;;;;;;;;20.66;61.04;97512.08;604593;234;64906;-72
2022/11/03 08:25:17;;;;;;;;;;;;;;;20.67;60.99;97513.69;604656;234;68749;-67
2022/11/03 08:27:44;;;;;;;;;;;;;;;20.67;61.06;97508.34;604574;234;68748;-74
2022/11/03 08:30:12;;;;;;;;;;;;;;;20.67;61.26;97508.34;604536;234;65103;-73
2022/11/03 08:32:40;;;;;;;;;;;;;;;20.66;60.43;97512.08;604594;234;68701;-74
2022/11/03 08:35:07;;;;;;;;;;;;;;;20.66;60.78;97511.28;604598;234;68566;-68
2022/11/03 08:37:35;;;;;;;;;;;;;;;20.64;60.00;97503.52;604468;234;65172;-75
2022/11/03 08:40:03;;;;;;;;;;;;;;;20.66;60.36;97505.94;604527;234;68748;-75
2022/11/03 08:42:30;;;;;;;;;;;;;;;20.66;60.36;97506.74;604478;234;66649;-75
2022/11/03 08:44:58;;;;;;;;;;;;;;;20.67;60.30;97505.67;604538;234;62832;-77
2022/11/03 08:47:27;;;;;;;;;;;;;;;20.67;59.95;97497.66;604633;234;66635;-74
2022/11/03 08:49:55;;;;;;;;;;;;;;;20.68;60.19;97498.45;604002;234;66435;-74
2022/11/03 08:52:23;;;;;;;;;;;;;;;20.68;60.16;97506.47;600574;236;62467;-74
2022/11/03 08:54:50;;;;;;;;;;;;;;;20.68;59.83;97495.79;600555;236;68703;-75
2022/11/03 08:57:19;;;;;;;;;;;;;;;20.69;60.35;97505.42;600623;236;68309;-75
2022/11/03 08:59:46;;;;;;;;;;;;;;;20.70;60.21;97499.02;600572;236;64903;-75
2022/11/03 09:02:14;;;;;;;;;;;;;;;20.71;59.97;97495.30;600581;236;68651;-73
2022/11/03 09:04:41;;;;;;;;;;;;;;;20.71;60.24;97503.31;600472;236;68839;-75
2022/11/03 09:07:09;;;;;;;;;;;;;;;20.70;60.26;97499.02;600575;236;64908;-69
2022/11/03 09:09:36;;;;;;;;;;;;;;;20.70;60.43;97497.14;600550;236;68386;-68
2022/11/03 09:12:04;;;;;;;;;;;;;;;20.72;59.70;97494.23;600538;236;68532;-71
2022/11/03 09:14:31;;;;;;;;;;;;;;;20.72;59.85;97496.89;600519;236;64822;-68
2022/11/03 09:17:03;;;;;;;;;;;;;;;20.72;59.77;97489.69;600514;236;68602;-74
2022/11/03 09:19:31;;;;;;;;;;;;;;;20.73;59.76;97491.28;600522;236;68667;-71
2022/11/03 09:21:59;;;;;;;;;;;;;;;20.75;59.43;97488.36;600554;236;64905;-75
2022/11/03 09:24:26;;;;;;;;;;;;;;;20.76;59.55;97482.78;600562;236;68372;-74
2022/11/03 09:26:54;;;;;;;;;;;;;;;20.75;59.85;97480.36;600501;234;68513;-73
2022/11/03 09:29:21;;;;;;;;;;;;;;;20.75;60.67;97478.48;600571;236;65103;-73
2022/11/03 09:31:49;;;;;;;;;;;;;;;20.76;60.62;97473.94;600545;236;68732;-72
2022/11/03 09:34:16;;;;;;;;;;;;;;;20.75;59.96;97467.80;600513;236;68481;-74
2022/11/03 09:36:44;;;;;;;;;;;;;;;20.76;60.25;97468.59;600569;236;64755;-72
2022/11/03 09:39:11;;;;;;;;;;;;;;;20.76;60.32;97469.42;600555;236;68683;-76
2022/11/03 09:41:39;;;;;;;;;;;;;;;20.76;60.52;97461.41;600469;236;68468;-73
2022/11/03 09:44:07;;;;;;;;;;;;;;;20.77;60.66;97463.02;600591;236;62690;-73
2022/11/03 09:46:34;;;;;;;;;;;;;;;20.77;60.66;97456.88;600525;236;66430;-73
2022/11/03 09:49:03;;;;;;;;;;;;;;;20.78;60.18;97458.47;600544;236;66578;-73
2022/11/03 09:51:32;;;;;;;;;;;;;;;20.78;60.49;97456.59;600585;236;64883;-72
2022/11/03 09:54:01;;;;;;;;;;;;;;;20.79;61.04;97452.88;600271;236;68673;-72
2022/11/03 09:56:28;;;;;;;;;;;;;;;20.79;60.60;97446.73;600560;236;68383;-71
2022/11/03 09:58:56;;;;;;;;;;;;;;;20.80;60.59;97442.99;600564;236;65025;-73
2022/11/03 10:01:24;;;;;;;;;;;;;;;20.79;60.92;97438.72;600534;236;68664;-72
2022/11/03 10:03:51;;;;;;;;;;;;;;;20.80;61.20;97440.32;600476;236;66819;-76
2022/11/03 10:06:20;;;;;;;;;;;;;;;20.80;61.34;97434.98;600487;236;62837;-77
2022/11/03 10:08:48;;;;;;;;;;;;;;;20.79;61.03;97431.52;600489;236;68636;-72
2022/11/03 10:11:15;;;;;;;;;;;;;;;20.81;61.29;97428.56;600606;236;68092;-73
2022/11/03 10:13:44;;;;;;;;;;;;;;;20.81;60.92;97429.36;600578;236;64926;-74
2022/11/03 10:16:13;;;;;;;;;;;;;;;20.82;60.74;97424.84;600414;234;68359;-74
2022/11/03 10:18:41;;;;;;;;;;;;;;;20.82;60.64;97422.17;600414;236;66479;-75
2022/11/03 10:21:19;;;;;;;;;;;;;;;20.83;60.74;97421.10;600437;236;63023;-72
2022/11/03 10:23:49;;;;;;;;;;;;;;;20.84;60.76;97420.02;600482;236;66173;-74
2022/11/03 10:26:17;;;;;;;;;;;;;;;20.83;61.33;97418.43;600555;236;66148;-74
2022/11/03 10:28:53;;;;;;;;;;;;;;;20.83;60.98;97423.77;600563;236;65165;-74
2022/11/03 10:31:21;;;;;;;;;;;;;;;20.83;61.18;97415.76;594982;236;66155;-73
2022/11/03 10:33:52;;;;;;;;;;;;;;;20.84;61.14;97412.02;600501;236;68513;-73
2022/11/03 10:36:21;;;;;;;;;;;;;;;20.84;60.98;97407.50;600406;236;64857;-73
2022/11/03 10:38:49;;;;;;;;;;;;;;;20.84;61.12;97402.16;600528;236;68276;-73
2022/11/03 10:41:17;;;;;;;;;;;;;;;20.84;60.99;97391.47;600530;236;68479;-73
2022/11/03 10:43:46;;;;;;;;;;;;;;;20.84;60.75;97385.30;600463;236;62807;-75
2022/11/03 10:46:18;;;;;;;;;;;;;;;20.86;61.27;97387.72;599976;236;66735;-75
2022/11/03 10:49:02;;;;;;;;;;;;;;;20.86;61.18;97374.37;600508;236;68612;-76
2022/11/03 10:51:30;;;;;;;;;;;;;;;20.86;60.91;97377.83;603612;234;65089;-67
2022/11/03 10:53:57;;;;;;;;;;;;;;;20.86;60.97;97371.70;604600;234;68854;-73
2022/11/03 10:56:25;;;;;;;;;;;;;;;20.90;60.55;97372.77;604595;234;68689;-67
2022/11/03 10:58:53;;;;;;;;;;;;;;;20.91;59.52;97364.50;604554;234;64865;-73
2022/11/03 11:01:20;;;;;;;;;;;;;;;20.94;61.19;97363.18;604688;234;68790;-72
2022/11/03 11:03:48;;;;;;;;;;;;;;;20.96;61.47;97366.40;604567;234;68590;-66
2022/11/03 11:06:20;;;;;;;;;;;;;;;20.96;60.76;97361.85;604580;234;65238;-72
2022/11/03 11:08:49;;;;;;;;;;;;;;;20.95;57.81;97360.25;604567;234;66836;-75
2022/11/03 11:11:17;;;;;;;;;;;;;;;20.94;59.23;97352.49;604535;234;68704;-79
2022/11/03 11:13:45;;;;;;;;;;;;;;;20.91;60.85;97353.81;604598;234;65078;-79
2022/11/03 11:16:17;;;;;;;;;;;;;;;20.90;61.70;97356.73;604644;234;68612;-70
2022/11/03 11:18:49;;;;;;;;;;;;;;;20.89;61.39;97345.25;599487;234;68567;-75
2022/11/03 11:21:18;;;;;;;;;;;;;;;20.89;60.16;97344.45;604598;234;62637;-72
2022/11/03 11:23:47;;;;;;;;;;;;;;;20.88;60.63;97348.20;604545;234;68709;-72
2022/11/03 11:26:28;;;;;;;;;;;;;;;20.88;59.17;97343.66;604564;234;68425;-71
2022/11/03 11:29:10;;;;;;;;;;;;;;;20.87;57.27;97336.72;604669;234;62734;-74
2022/11/03 11:31:42;;;;;;;;;;;;;;;20.89;59.39;97339.11;604635;234;68593;-73
2022/11/03 11:34:15;;;;;;;;;;;;;;;20.88;60.13;97332.97;604172;234;65985;-73
2022/11/03 11:36:41;;;;;;;;;;;;;;;20.88;60.29;97332.97;604520;234;62823;-74
2022/11/03 11:39:13;;;;;;;;;;;;;;;20.88;59.77;97330.30;603469;234;68893;-74
2022/11/03 11:41:58;;;;;;;;;;;;;;;20.88;59.39;97335.64;604403;234;66476;-73
2022/11/03 11:44:48;;;;;;;;;;;;;;;20.88;59.21;97334.84;603214;234;64908;-74
2022/11/03 11:47:33;;;;;;;;;;;;;;;20.88;59.87;97332.17;604088;234;68733;-74
2022/11/03 22:59:16;;;;;;;;;;;;;;;20.92;58.97;97122.19;544484;231;46085;-66
2022/11/03 23:01:43;;;;;;;;;;;;;;;20.91;60.90;97129.41;587779;241;68532;-66
2022/11/03 23:04:11;;;;;;;;;;;;;;;20.90;59.80;97127.82;587811;241;63353;-66
2022/11/03 23:06:39;;;;;;;;;;;;;;;20.89;60.33;97120.86;587810;241;66591;-66
2022/11/03 23:09:09;;;;;;;;;;;;;;;20.87;62.05;97125.69;587791;241;68681;-66
2022/11/03 23:11:37;;;;;;;;;;;;;;;20.83;61.43;97117.39;587807;241;63124;-66
2022/11/03 23:14:09;;;;;;;;;;;;;;;20.81;61.11;97118.72;587791;241;66704;-66
2022/11/03 23:16:38;;;;;;;;;;;;;;;20.79;61.94;97113.66;587805;241;68837;-66
2022/11/03 23:21:52;;;;;;;;;;;;;;;20.73;60.83;97109.36;587769;241;68706;-66
2022/11/03 23:27:06;;;;;;;;;;;;;;;20.71;62.86;97113.39;587790;241;62853;-67
2022/11/03 23:29:33;;;;;;;;;;;;;;;20.68;62.06;97113.90;587804;241;66438;-67
2022/11/03 23:32:01;;;;;;;;;;;;;;;20.67;63.58;97109.64;587775;241;68703;-67
2022/11/03 23:34:29;;;;;;;;;;;;;;;20.66;62.00;97106.17;587817;241;65045;-66
2022/11/03 23:36:58;;;;;;;;;;;;;;;20.65;62.22;97103.75;587788;241;68682;-67
2022/11/03 23:39:26;;;;;;;;;;;;;;;20.63;63.39;97104.03;587909;241;47812;-67
2022/11/03 23:41:53;;;;;;;;;;;;;;;20.63;63.38;97105.91;587790;241;62764;-67
2022/11/03 23:44:21;;;;;;;;;;;;;;;20.62;63.26;97102.42;587798;241;68766;-69
2022/11/03 23:49:34;;;;;;;;;;;;;;;20.58;63.46;97094.14;587768;241;65041;-69
2022/11/03 23:52:01;;;;;;;;;;;;;;;20.58;63.84;97083.47;587789;241;66650;-69
2022/11/03 23:54:28;;;;;;;;;;;;;;;20.58;61.68;97086.14;587791;241;66617;-69
2022/11/03 23:59:43;;;;;;;;;;;;;;;20.56;64.33;97082.92;587741;241;68732;-70
